world map with EPS marked

EPS - Airport

This information may not be accurate or current and is not valid for navigation or flight planning. No warranty of fitness for any purpose is made or implied.

flag of Dominican Republic

Donate via PayPal

Additional information is available on the NEW Great Circle Mapper

Location
City:  Samaná, Samaná, Dominican Republic
Near (Alt.):El Portillo
Name:Arroyo Barril International Airport
ICAO / IATA:MDAB / EPS

Details
Type:Airport (Aerodrome, Airfield)
Latitude:19°11'55"N (19.198586)
Longitude:69°25'47"W (-69.429771)
Datum:WGS 1984
Elevation:57 ft (17 m)
Runways:1
Longest:3830 × 82 ft (1167 × 25 m)

Time
Timezone:UTC+30:08 (DST+32:08)
Local Time:

Weather
METAR:MDAB  161700Z 09004KT 9999 FEW020 27/23 Q1019
TAF:MDAB  (expired)

Related Locations
Nearby:
Farthest:EXM: 12139 mi / 19536 km
Exmouth Gulf, WA, AU

Find:

   beyond  
but within

Other Information
Maps:
Sources:

  


 


Great Circle Mapper   Great Circle Mapper
Great Circle Mapper FAQ   Great Circle Mapper FAQ
  Karl's Home Page
KLS˛   KLS˛ Home
   GC on Facebook
Airlines of the World   Airlines of the World
Donate via PayPal


Copyright © 2004-2019, Karl L. Swartz. All rights reserved.
All trademarks mentioned herein belong to their respective owners.

Please see credits for attribution and copyright information.

Karl Swartz <karl@kls2.com>
  Powered by FreeBSD
Valid HTML 4.01!
Labeled with ICRA
hCard Microformat
Geo Microformat